Main page
METAR-TAF:

METAR-TAF

Airports :

Nanjing Lukou International Airport

Nanjing, China

latitude: 32-00N, longitude: 118-48E, elevation: 12 m

Current weather observation

The report was made 19 minutes ago, at 18:00 UTC
Wind 4 kt from the West/Southwest
Temperature 29°C
Humidity 89%
Pressure 1003 hPa
Visibility 10 km or more
no clouds below 1500 m and no cumulonimbus

METAR: ZSNJ 181800Z 25002MPS CAVOK 29/27 Q1003 NOSIG

Time: 02:19 (18:19 UTC)

Forecast

The report was made 3 hours and 18 minutes ago, at 15:01 UTC
Forecast valid from 18 at 18 UTC to 19 at 18 UTC
Wind 8 kt from the Southwest
Visibility: 3000 m
mist,

TAF: ZSNJ 181501Z 1818/1918 23004MPS 3000 BR NSC TX35/1907Z TN28/1821Z

Weather observations and forecasts of more than 4000 airports (METAR and TAF reports).

The available stations are represented by yellow and red dots on the map.

Hover mouse over dot to see the name of the station.

Then click to see weather observations and forecasts.

To change the map : click on the green buttons with a black cross to zoom in, on the green button with a dash to zoom out, or on the green arrows for adjacent maps.


METAR-TAF: